Latest Weather Observations for St Helens

IDT60801

Issued at 3:51 pm EDT Sunday 29 November 2020 (issued every 10 minutes, with the page automatically refreshed every 10 minutes)

About weather observations | Map of weather stations | Latest weather observations for TAS | Other Formats
Station Details ID: 092120 Name: ST HELENS AERODROME Lat: -41.34 Lon: 148.28 Height: 48.0 m
Data from the previous 72 hours. | See also: Recent months at St Helens
Date/Time
EDT
Temp
°C
App
Temp
°C
Dew
Point
°C
Rel
Hum
%
Delta-T
°C
Wind Press
QNH
hPa
Press
MSL
hPa
Rain since
9am
mm
Dir  Spd
km/h
Gust
km/h
Spd
kts
Gust
kts
29/03:30pm 17.3 14.5 11.3 68 3.3 S 17 30 9 16 1003.9 1003.9 1.0
29/03:00pm 16.0 12.8 11.2 73 2.6 SSE 19 32 10 17 1003.3 1003.3 1.0
29/02:30pm 18.3 15.6 11.6 65 3.7 S 17 26 9 14 1002.4 1002.4 1.0
29/02:00pm 18.5 16.7 10.8 61 4.2 SSW 11 20 6 11 1001.4 1001.4 1.0
29/01:30pm 18.7 14.7 10.5 59 4.4 S 22 35 12 19 1000.5 1000.5 1.0
29/01:00pm 17.5 14.7 11.3 67 3.4 S 17 39 9 21 999.7 999.7 1.0
29/12:30pm 17.3 14.9 12.6 74 2.6 S 17 30 9 16 999.1 999.1 1.0
29/12:00pm 15.2 12.2 12.5 84 1.5 S 20 39 11 21 998.3 998.3 1.0
29/11:30am 15.1 12.2 14.1 94 0.6 S 22 39 12 21 997.5 997.4 1.0
29/11:00am 14.4 12.1 14.2 99 0.1 S 19 33 10 18 996.8 996.7 1.0
29/10:30am 14.1 11.5 13.9 99 0.1 S 20 37 11 20 995.9 995.8 1.0
29/10:00am 13.9 10.6 13.9 100 0.0 S 24 43 13 23 994.7 994.6 1.0
29/09:30am 13.4 12.0 13.4 100 0.0 S 13 22 7 12 995.7 995.6 1.0
29/09:22am 13.5 11.4 13.5 100 0.0 S 17 33 9 18 995.4 995.3 0.8
29/09:05am 13.3 10.7 13.3 100 0.0 SSW 19 28 10 15 995.6 995.5 0.2
29/09:00am 13.2 - 13.3 - - S 19 30 10 16 995.5 995.4 26.6
29/08:36am 13.1 11.6 13.1 100 0.0 S 13 24 7 13 996.1 996.0 25.8
29/08:30am 13.1 11.6 13.1 100 0.0 S 13 24 7 13 995.9 995.8 25.2
29/08:00am 13.1 11.2 13.1 100 0.0 S 15 24 8 13 996.1 996.0 22.0
29/07:55am 13.1 10.8 13.1 100 0.0 S 17 22 9 12 996.2 996.1 21.4
29/07:52am 13.1 11.2 13.1 100 0.0 S 15 24 8 13 996.2 996.1 21.2
29/07:42am 13.1 10.8 13.1 100 0.0 S 17 28 9 15 996.1 996.0 20.4
29/07:30am 13.1 11.2 13.1 100 0.0 S 15 26 8 14 996.2 996.1 19.6
29/07:00am 13.3 11.5 13.3 100 0.0 S 15 28 8 15 996.1 996.0 16.8
29/06:36am 13.1 11.2 13.1 100 0.0 S 15 22 8 12 996.5 996.4 15.6
29/06:30am 13.0 11.5 13.0 100 0.0 S 13 20 7 11 996.5 996.4 14.8
29/06:00am 13.1 11.6 13.0 99 0.1 S 13 20 7 11 996.8 996.7 12.2
29/05:41am 13.0 11.1 13.0 100 0.0 S 15 20 8 11 996.7 996.6 10.6
29/05:35am 13.2 11.4 13.2 100 0.0 S 15 20 8 11 996.7 996.6 10.0
29/05:30am 13.2 11.4 13.2 100 0.0 S 15 22 8 12 996.7 996.6 9.8
29/05:07am 13.3 11.9 13.3 100 0.0 S 13 19 7 10 997.1 997.0 8.6
29/05:00am 13.4 12.0 13.4 100 0.0 S 13 17 7 9 997.2 997.1 7.6
29/04:36am 13.6 13.0 13.6 100 0.0 S 9 15 5 8 997.4 997.3 6.8
29/04:30am 13.6 13.4 13.6 100 0.0 S 7 13 4 7 997.6 997.5 6.6
29/04:00am 13.9 14.8 13.9 100 0.0 S 2 7 1 4 997.9 997.8 5.8
29/03:44am 14.0 15.3 14.0 100 0.0 CALM 0 0 0 0 998.5 998.5 5.4
29/03:30am 14.0 14.1 14.0 100 0.0 NNE 6 7 3 4 998.7 998.7 5.4
29/03:00am 14.0 13.9 14.0 100 0.0 ENE 7 9 4 5 999.2 999.2 5.2
29/02:30am 14.1 15.4 14.1 100 0.0 CALM 0 6 0 3 1000.4 1000.4 5.2
29/02:00am 14.3 14.3 14.1 99 0.1 WNW 7 13 4 7 1001.4 1001.4 5.0
29/01:30am 14.4 14.6 14.2 99 0.1 N 6 9 3 5 1002.3 1002.3 5.0
29/01:00am 14.7 15.0 14.5 99 0.1 W 6 11 3 6 1003.7 1003.7 4.6
29/12:30am 15.2 14.7 15.0 99 0.1 N 11 17 6 9 1003.7 1003.7 4.2
29/12:00am 15.3 15.6 15.1 99 0.1 N 7 11 4 6 1003.3 1003.3 3.8
 
Date/Time
EDT
Temp
°C
App
Temp
°C
Dew
Point
°C
Rel
Hum
%
Delta-T
°C
Wind Press
QNH
hPa
Press
MSL
hPa
Rain since
9am
mm
Dir  Spd
km/h
Gust
km/h
Spd
kts
Gust
kts
28/11:30pm 15.0 16.3 14.2 95 0.5 CALM 0 0 0 0 1002.4 1002.4 3.8
28/11:00pm 15.3 16.9 14.8 97 0.3 CALM 0 0 0 0 1002.5 1002.5 3.8
28/10:30pm 15.5 16.3 14.9 96 0.3 ESE 4 6 2 3 1003.0 1003.0 3.8
28/10:00pm 15.9 16.2 14.9 94 0.6 NNE 7 9 4 5 1004.3 1004.3 3.8
28/09:30pm 15.7 16.0 14.4 92 0.7 NE 6 7 3 4 1004.2 1004.2 3.8
28/09:00pm 16.1 16.1 14.1 88 1.1 NNE 7 13 4 7 1004.2 1004.2 3.8
28/08:30pm 16.0 15.8 13.7 86 1.3 NE 7 11 4 6 1004.1 1004.1 3.8
28/08:00pm 16.2 16.3 13.9 86 1.3 NNE 6 9 3 5 1004.3 1004.3 3.8
28/07:30pm 16.3 16.3 14.1 87 1.3 N 7 11 4 6 1004.1 1004.1 3.8
28/07:00pm 16.4 15.7 14.2 87 1.3 NNE 11 15 6 8 1003.8 1003.8 3.8
28/06:30pm 16.5 15.7 14.0 85 1.4 E 11 17 6 9 1003.4 1003.4 3.8
28/06:00pm 17.8 17.8 15.2 85 1.5 NE 9 15 5 8 1003.4 1003.4 3.8
28/05:30pm 18.1 17.7 16.1 88 1.2 NNE 13 17 7 9 1003.9 1003.9 3.8
28/05:00pm 17.1 16.7 15.1 88 1.2 NNE 11 15 6 8 1004.4 1004.4 3.8
28/04:30pm 18.5 18.7 15.7 84 1.7 NE 9 13 5 7 1004.0 1004.0 3.8
28/04:00pm 18.0 19.6 14.9 82 1.8 CALM 0 7 0 4 1005.0 1005.0 3.8
28/03:30pm 16.9 17.5 15.4 91 0.9 NNW 6 7 3 4 1005.3 1005.3 3.8
28/03:09pm 17.1 17.3 14.7 86 1.4 NNW 7 11 4 6 1005.2 1005.2 3.8
28/03:00pm 17.6 18.2 15.9 90 1.0 N 7 11 4 6 1005.1 1005.1 3.8
28/02:30pm 16.0 16.6 15.8 99 0.1 ENE 7 9 4 5 1005.4 1005.4 3.8
28/02:00pm 16.2 17.1 16.2 100 0.0 SE 6 9 3 5 1006.3 1006.3 3.8
28/01:43pm 15.9 17.1 15.9 100 0.0 SE 4 13 2 7 1005.9 1005.9 3.8
28/01:30pm 15.8 17.0 15.8 100 0.0 SE 4 9 2 5 1005.8 1005.8 3.8
28/01:00pm 15.7 16.8 15.7 100 0.0 SSE 4 7 2 4 1006.3 1006.3 3.8
28/12:57pm 15.4 16.8 15.4 100 0.0 SE 2 7 1 4 1006.4 1006.4 3.8
28/12:38pm 15.2 15.2 15.2 100 0.0 S 9 15 5 8 1007.2 1007.2 3.6
28/12:30pm 15.3 15.7 15.3 100 0.0 SSE 7 15 4 8 1006.5 1006.5 3.6
28/12:00pm 15.3 17.0 15.1 99 0.1 CALM 0 6 0 3 1007.0 1006.9 2.6
28/11:39am 15.5 15.9 15.3 99 0.1 SE 7 13 4 7 1005.1 1005.1 1.0
28/11:30am 15.4 15.8 15.2 99 0.1 SSE 7 11 4 6 1005.2 1005.2 0.6
28/11:00am 16.4 16.7 15.9 97 0.3 SE 9 19 5 10 1004.5 1004.5 0.0
28/10:30am 15.7 15.7 15.1 96 0.3 SE 9 19 5 10 1004.9 1004.9 0.0
28/10:00am 16.7 17.0 15.1 90 0.9 SSE 7 15 4 8 1006.0 1006.0 0.0
28/09:34am 16.0 14.7 14.7 92 0.7 SSE 15 24 8 13 1004.2 1004.2 0.0
28/09:30am 16.1 15.3 15.0 93 0.6 SSE 13 20 7 11 1004.3 1004.3 0.0
28/09:08am 16.1 16.0 15.0 93 0.6 S 9 15 5 8 1005.5 1005.5 0.0
28/09:00am 16.0 15.9 15.0 94 0.6 S 9 15 5 8 1005.3 1005.2 0.2
28/08:30am 16.0 16.2 15.8 99 0.1 S 9 17 5 9 1005.5 1005.5 0.2
28/08:00am 15.6 16.2 15.4 99 0.1 SSE 6 13 3 7 1004.8 1004.8 0.2
28/07:30am 15.4 15.8 15.4 100 0.0 S 7 17 4 9 1004.1 1004.1 0.2
28/07:00am 15.1 14.7 15.1 100 0.0 S 11 17 6 9 1004.3 1004.3 0.2
28/06:30am 15.0 14.5 15.0 100 0.0 S 11 20 6 11 1003.6 1003.6 0.2
28/06:00am 14.8 14.3 14.8 100 0.0 SSE 11 19 6 10 1002.3 1002.3 0.2
28/05:35am 14.8 13.8 14.6 99 0.1 S 13 24 7 13 1002.6 1002.6 0.2
28/05:30am 14.8 13.8 14.6 99 0.1 S 13 24 7 13 1002.6 1002.6 0.2
28/05:00am 15.0 15.2 14.8 99 0.1 SE 7 13 4 7 1003.1 1003.1 0.2
28/04:30am 14.7 14.1 14.5 99 0.1 E 11 24 6 13 1002.2 1002.2 0.2
28/04:09am 14.7 12.9 14.5 99 0.1 E 17 26 9 14 1003.3 1003.3 0.2
28/04:00am 14.8 14.2 14.6 99 0.1 ESE 11 20 6 11 1005.5 1005.5 0.2
28/03:30am 15.0 14.7 14.4 96 0.3 E 9 15 5 8 1004.7 1004.7 0.2
28/03:11am 15.1 14.3 14.0 93 0.6 ESE 11 20 6 11 1003.7 1003.7 0.2
28/03:00am 15.4 15.4 14.1 92 0.7 E 7 24 4 13 1006.2 1006.4 0.2
28/02:30am 15.1 14.3 14.0 93 0.6 SSE 11 17 6 9 1005.7 1005.7 0.2
28/02:00am 16.0 13.2 12.7 81 1.8 SSE 19 39 10 21 1004.2 1004.2 0.2
28/01:30am 18.1 16.7 9.5 57 4.5 E 7 13 4 7 1002.6 1002.6 0.2
28/01:00am 19.0 17.1 8.9 52 5.3 SW 9 22 5 12 1003.4 1003.4 0.2
28/12:30am 19.1 16.7 8.7 51 5.4 NW 11 24 6 13 1002.8 1002.8 0.2
28/12:00am 18.8 15.4 9.0 53 5.2 NW 17 28 9 15 1003.2 1003.0 0.2
 
Date/Time
EDT
Temp
°C
App
Temp
°C
Dew
Point
°C
Rel
Hum
%
Delta-T
°C
Wind Press
QNH
hPa
Press
MSL
hPa
Rain since
9am
mm
Dir  Spd
km/h
Gust
km/h
Spd
kts
Gust
kts
27/11:30pm 17.4 15.3 11.2 67 3.4 WNW 13 20 7 11 1004.0 1004.0 0.2
27/11:00pm 16.1 15.6 12.8 81 1.8 NW 7 13 4 7 1003.7 1003.7 0.2
27/10:30pm 16.3 15.7 13.6 84 1.5 N 9 11 5 6 1003.3 1003.3 0.2
27/10:00pm 16.8 16.1 14.4 86 1.4 NNW 11 17 6 9 1003.3 1003.3 0.2
27/09:30pm 16.3 16.1 14.8 91 0.9 NW 9 15 5 8 1004.2 1004.2 0.2
27/09:00pm 17.0 16.5 15.0 88 1.2 NNW 11 19 6 10 1004.5 1004.5 0.2
27/08:30pm 17.4 16.7 15.4 88 1.2 NW 13 24 7 13 1005.0 1005.0 0.2
27/08:00pm 17.2 15.4 16.1 93 0.7 N 20 32 11 17 1005.2 1005.2 0.2
27/07:30pm 17.6 16.4 16.1 91 0.9 N 17 28 9 15 1005.7 1005.7 0.2
27/07:00pm 17.6 15.7 15.8 89 1.1 NNE 20 28 11 15 1006.1 1006.1 0.2
27/06:30pm 17.8 15.6 16.0 89 1.1 NNE 22 33 12 18 1006.3 1006.3 0.2
27/06:00pm 17.8 15.0 15.4 86 1.4 NNE 24 37 13 20 1006.9 1007.0 0.2
27/05:30pm 17.8 14.5 15.1 84 1.6 NNE 26 35 14 19 1007.7 1007.6 0.2
27/05:00pm 18.0 15.2 15.3 84 1.6 NNE 24 35 13 19 1008.4 1008.3 0.2
27/04:30pm 18.2 15.2 14.7 80 2.0 N 24 35 13 19 1009.3 1009.2 0.2
27/04:00pm 17.6 15.4 14.3 81 1.9 N 19 30 10 16 1009.8 1009.7 0.2
27/03:30pm 17.4 14.8 13.7 79 2.1 NNE 20 33 11 18 1010.5 1010.4 0.2
27/03:00pm 17.7 15.1 13.2 75 2.5 N 19 32 10 17 1011.4 1011.4 0.2
27/02:30pm 17.5 13.7 12.4 72 2.8 N 24 35 13 19 1011.9 1011.8 0.0
27/02:00pm 17.6 13.6 11.9 69 3.1 NNE 24 37 13 20 1012.5 1012.4 0.0
27/01:30pm 18.3 14.4 12.1 67 3.4 NNE 24 33 13 18 1013.2 1013.1 0.0
27/01:00pm 19.8 15.0 11.8 60 4.4 NNE 28 41 15 22 1013.6 1013.5 0.0
27/12:30pm 18.5 13.8 10.8 61 4.2 N 26 44 14 24 1014.4 1014.3 0.0
27/12:00pm 19.1 15.3 11.2 60 4.3 NNE 22 30 12 16 1014.7 1014.7 0.0
27/11:32am 19.4 14.3 10.7 57 4.7 NNE 28 46 15 25 1015.3 1015.2 0.0
27/11:30am 19.2 14.1 10.5 57 4.7 NNE 28 43 15 23 1015.4 1015.4 0.0
27/11:00am 19.2 15.8 11.3 60 4.3 NNE 20 32 11 17 1015.6 1015.6 0.0
27/10:30am 18.3 14.4 10.9 62 4.0 N 22 33 12 18 1015.9 1015.9 0.0
27/10:00am 19.1 15.7 11.4 61 4.2 N 20 37 11 20 1016.4 1016.4 0.0
27/09:30am 18.3 15.1 11.1 63 3.9 N 19 28 10 15 1016.8 1016.8 0.0
27/09:00am 17.5 15.0 12.4 72 2.8 N 17 24 9 13 1017.2 1017.2 0.4
27/08:30am 16.6 15.2 13.3 81 1.9 N 13 19 7 10 1017.4 1017.4 0.4
27/08:00am 15.7 15.2 13.9 89 1.0 N 9 15 5 8 1017.3 1017.3 0.4
27/07:30am 15.1 15.2 14.5 96 0.3 NNE 7 19 4 10 1017.3 1017.3 0.4
27/07:00am 13.9 13.8 13.4 97 0.3 W 6 9 3 5 1017.2 1017.2 0.4
27/06:30am 13.6 13.9 13.3 98 0.2 W 4 11 2 6 1017.5 1017.5 0.4
27/06:00am 13.6 13.8 13.1 97 0.3 WNW 4 11 2 6 1017.6 1017.5 0.4
27/05:30am 14.3 13.1 12.7 90 0.9 NNE 11 15 6 8 1017.7 1017.7 0.0
27/05:00am 13.8 13.3 12.2 90 0.9 ENE 6 9 3 5 1017.7 1017.7 0.0
27/04:30am 13.7 13.5 11.8 88 1.0 ENE 4 7 2 4 1017.9 1017.9 0.0
27/04:00am 13.7 14.1 11.2 85 1.3 CALM 0 6 0 3 1018.3 1018.3 0.0
27/03:30am 13.7 13.9 10.7 82 1.6 CALM 0 0 0 0 1018.5 1018.5 0.0
27/03:00am 13.9 13.0 10.5 80 1.8 ESE 6 11 3 6 1018.6 1018.6 0.0
27/02:30am 13.8 13.2 10.4 80 1.8 E 4 9 2 5 1019.0 1019.0 0.0
27/02:00am 13.7 13.5 10.3 80 1.8 SSE 2 6 1 3 1019.3 1019.3 0.0
27/01:30am 13.9 12.8 10.1 78 2.0 ESE 6 13 3 7 1019.3 1019.3 0.0
27/01:00am 14.0 12.9 10.0 77 2.1 ESE 6 13 3 7 1019.8 1019.8 0.0
27/12:30am 14.2 13.0 10.2 77 2.1 ESE 7 13 4 7 1019.9 1019.9 0.0
27/12:00am 14.2 12.9 10.0 76 2.2 ESE 7 13 4 7 1019.7 1019.7 0.0
 
Date/Time
EDT
Temp
°C
App
Temp
°C
Dew
Point
°C
Rel
Hum
%
Delta-T
°C
Wind Press
QNH
hPa
Press
MSL
hPa
Rain since
9am
mm
Dir  Spd
km/h
Gust
km/h
Spd
kts
Gust
kts
26/11:30pm 14.2 12.6 10.2 77 2.1 SE 9 13 5 7 1019.8 1019.8 0.0
26/11:00pm 14.1 13.0 10.7 80 1.8 SE 7 15 4 8 1019.8 1019.8 0.0
26/10:30pm 14.0 12.6 10.8 81 1.7 SE 9 15 5 8 1019.7 1019.7 0.0
26/10:00pm 13.9 12.4 10.5 80 1.8 SE 9 15 5 8 1019.1 1019.1 0.0
26/09:30pm 13.9 12.4 10.7 81 1.7 SE 9 15 5 8 1018.8 1018.8 0.0
26/09:00pm 14.1 12.4 11.3 83 1.5 SE 11 22 6 12 1018.1 1018.1 0.0
26/08:30pm 14.5 12.5 11.5 82 1.6 ESE 13 24 7 13 1017.7 1017.7 0.0
26/08:00pm 15.3 13.4 11.7 79 1.9 SE 13 26 7 14 1017.1 1017.1 0.0
26/07:30pm 16.4 15.3 12.0 75 2.4 ESE 9 19 5 10 1016.5 1016.5 0.0
26/07:00pm 17.0 15.1 10.6 66 3.4 ESE 11 17 6 9 1016.0 1016.0 0.0
26/06:30pm 17.9 15.4 9.8 59 4.3 ENE 13 20 7 11 1015.3 1015.2 0.0
26/06:00pm 18.8 15.9 9.6 55 4.9 ENE 15 20 8 11 1014.6 1014.6 0.0
26/05:30pm 19.3 16.4 9.8 54 5.1 NNE 15 20 8 11 1014.1 1014.0 0.0
26/05:00pm 19.7 16.1 8.4 48 5.9 NE 17 24 9 13 1013.6 1013.5 0.0
26/04:30pm 20.4 16.5 8.7 47 6.2 NE 19 26 10 14 1013.2 1013.1 0.0
26/04:00pm 19.5 15.4 7.9 47 6.0 NNE 19 26 10 14 1012.9 1012.8 0.0

Other formats

Comma delimited format used in spreadsheet applications
http://www.bom.gov.au/fwo/IDT60801/IDT60801.95981.axf

JavaScript Object Notation format (JSON) in row-major order
http://www.bom.gov.au/fwo/IDT60801/IDT60801.95981.json

Data quality

Most of these data are generated automatically and are frequently updated. Quality checks on data are not normally performed. It is possible for incorrect values to appear. Refer to information at About Latest Weather Observations and please check the disclaimer before using these data.